< < Back
Terminal Aerodrome Forecast


Current Version              Previous Versions:   1  2  3  4  5  6  7  8  9  

Terminal Aerodrome Forecast

172
FTUS42 KFFC 310500
TAFPDK
TAF
KPDK 310525Z 3106/0106 00000KT P6SM SCT200
     FM311600 08004KT P6SM SCT040 SCT200
     FM311800 06006KT P6SM BKN050
     FM010000 07005KT P6SM BKN150=

Latest METAR

417
SAUS70 KWBC 311500
MTRPDK
METAR KPDK 311453Z VRB03KT 7SM OVC016 23/18 A3009 RMK AO2 SLP177
T02330178 53009


USA.gov is the U.S. government's official web portal to all federal, state and local government web resources and services.